x

8577018 - Cove Point Lng Pier, Md (covm2) Weather Station

2:54am - Sat 30th Apr 2016 All times are EDT. -4 hours from GMT.

  • Wind
    10mph, 14mph gusts
  • Air Temp 51°f
  • Sea Pressure 1020.2mb
  • 8577018 - Cove Point Lng Pier, Md
  • 8577018 - Cove Point Lng Pier, Md

More Historic Weather Station data

Upgrade to MSW Pro to gain access to the past 30 days of data for over 8000 Wavebouys and Weather Stations around the globe.

Join Pro

Comparision Forecast

View Surf forecast
   
Sat 04/30 2:54am 10 14 mph 1020.2mb 51f
2:48am 11 15 mph 1020.2mb 51f
2:42am 10 13 mph 1020.3mb 51f
2:36am 10 11 mph 1020.2mb 51f
2:30am 10 13 mph 1020.1mb 51f
2:24am 10 11 mph 1020.2mb 51f
2:18am 9 14 mph 1020.1mb 51f
2:12am 11 14 mph 1020mb 51f
2:06am 10 11 mph 1020.1mb 51f
2:00am 8 10 mph 1020.3mb 51f
1:54am 8 13 mph 1020.3mb 51f
1:48am 10 13 mph 1020.4mb -
1:42am 9 13 mph 1020.4mb -
1:36am 10 11 mph 1020.3mb -
1:30am 9 13 mph 1020.4mb 51f
1:24am 10 13 mph 1020.1mb 51f
1:18am 10 11 mph 1020.3mb 51f
1:12am 9 10 mph 1020.3mb 51f
1:06am 9 10 mph 1020.4mb 51f
1:00am 8 10 mph 1020.3mb 51f
12:54am 8 10 mph 1020.2mb 51f
12:48am 8 10 mph 1020.2mb 51f
12:42am 8 10 mph 1020.3mb 51f
12:36am 7 10 mph 1020.3mb 51f
12:30am 6 7 mph 1020.2mb 51f
12:24am 6 8 mph 1020.1mb 51f
12:18am 6 8 mph 1020.1mb 51f
12:12am 8 10 mph 1019.9mb 51f
12:06am 6 9 mph 1019.7mb 51f
12:00am 7 9 mph 1020mb 51f
Fri 04/29 11:54pm 6 10 mph 1020mb 51f
11:48pm 7 11 mph 1019.8mb 51f
11:42pm 9 10 mph 1019.7mb 51f
11:36pm 8 10 mph 1019.8mb 51f
11:30pm 9 13 mph 1019.8mb 51f
11:24pm 11 14 mph 1019.7mb 50f
11:18pm 9 11 mph 1019.5mb 51f
11:12pm 10 13 mph 1019.6mb 51f
11:06pm 9 13 mph 1019.7mb 51f
11:00pm  -  mph - 51f
10:54pm  -  mph - 51f
10:48pm 11 14 mph 1019.6mb -
10:42pm 11 14 mph 1019.8mb -
10:36pm 10 14 mph 1019.5mb -
10:30pm 14 16 mph 1019.7mb -
10:24pm 14 15 mph 1019.6mb -
10:18pm 14 16 mph 1019.7mb 51f
10:12pm 13 16 mph 1019.8mb 51f
10:06pm 14 16 mph 1019.7mb 51f
10:00pm  -  mph 1019.7mb 51f
9:54pm  -  mph 1019.5mb 51f
9:48pm 11 14 mph 1019.4mb -
9:42pm 11 14 mph 1019.4mb -
9:36pm 11 14 mph 1019.1mb -
9:30pm 10 13 mph 1019.2mb -
9:24pm 9 11 mph 1019mb -
9:18pm 8 11 mph 1018.9mb 51f
9:12pm 8 13 mph 1018.9mb 51f
9:06pm 13 14 mph 1018.8mb 51f
9:00pm  -  mph 1019mb 51f
8:54pm  -  mph 1019mb 51f
8:48pm  -  mph 1018.6mb -
8:42pm  -  mph 1018.7mb -
8:36pm  -  mph 1018.4mb -
8:30pm  -  mph 1018.2mb -
8:24pm  -  mph 1018.1mb -
8:18pm  -  mph 1018.1mb -
8:12pm  -  mph 1017.9mb -
8:06pm  -  mph 1017.8mb -
8:00pm  -  mph 1017.7mb -
7:54pm  -  mph 1017.6mb -
7:48pm  -  mph 1017.6mb -
7:42pm  -  mph 1017.7mb -
7:36pm  -  mph 1017.5mb -
7:30pm 9 10 mph 1017.3mb 52f
7:24pm 8 11 mph 1017.5mb 52f
7:18pm  -  mph 1017.3mb 52f
7:12pm  -  mph 1017.7mb 52f
7:06pm  -  mph 1017.5mb 52f
7:00pm  -  mph - 52f
6:54pm  -  mph - 52f
6:48pm  -  mph 1017mb -
6:42pm  -  mph 1017.1mb -
6:36pm  -  mph 1017mb -
6:30pm 11 14 mph 1016.9mb -
6:24pm 10 13 mph 1016.9mb -
6:18pm 10 13 mph 1016.9mb 52f
6:12pm 9 14 mph 1016.8mb 53f
6:06pm 10 14 mph 1016.6mb 53f
6:00pm  -  mph 1016.7mb 53f
5:54pm  -  mph 1016.7mb 53f
5:48pm 10 13 mph 1016.8mb -
5:42pm 9 10 mph 1016.9mb -
5:36pm 7 9 mph 1016.9mb -
5:30pm 8 10 mph 1016.9mb 53f
5:24pm 9 11 mph 1016.9mb 53f
5:18pm 9 11 mph 1016.9mb 53f
5:12pm 10 14 mph 1016.9mb 53f
5:06pm 13 14 mph 1016.8mb 53f
5:00pm 7 10 mph 1016.8mb 53f
4:54pm 10 11 mph 1016.9mb 53f
4:48pm 9 11 mph 1017mb 53f
4:42pm 10 14 mph 1017.1mb 53f
4:36pm 9 10 mph 1017.2mb 53f
4:30pm 9 10 mph 1017.4mb 53f
4:24pm 6 7 mph 1017.5mb 53f
4:18pm 3 6 mph 1017.7mb 53f
4:12pm 5 7 mph 1017.8mb 53f
4:06pm 6 7 mph 1017.8mb 53f
4:00pm 6 8 mph 1017.8mb 53f
3:54pm 7 9 mph 1017.5mb 52f
3:48pm 7 9 mph 1017.5mb 53f
3:42pm 7 10 mph 1017.5mb 52f
3:36pm 9 10 mph 1017.3mb 52f
3:30pm 8 10 mph 1017.2mb 52f
3:24pm 8 10 mph 1017.4mb 52f
3:18pm 7 8 mph 1017.3mb 53f
3:12pm 6 9 mph 1017.5mb 52f
3:06pm 6 9 mph 1017.5mb 53f
3:00pm 8 9 mph 1017.4mb 53f
2:54pm 7 9 mph 1017.4mb 52f
2:48pm 6 8 mph 1017.7mb 53f
2:42pm 3 7 mph 1017.5mb 53f
2:36pm 6 8 mph 1017.7mb 53f
2:30pm 6 8 mph 1017.8mb 53f
2:24pm 7 8 mph 1017.9mb 53f
2:18pm 5 7 mph 1017.9mb 53f
2:12pm 3 6 mph 1017.7mb 53f
2:06pm 6
mph
1017.8mb 53f
2:00pm 5 6 mph 1017.8mb 53f
1:54pm 3 5 mph 1017.6mb 52f
1:48pm 5 6 mph 1017.7mb 52f
1:42pm 3 6 mph 1017.6mb 52f
1:36pm 5 7 mph 1017.5mb 52f
1:30pm 6 8 mph 1017.2mb 52f
1:24pm 5 7 mph 1017.3mb 52f
1:18pm 5 6 mph 1017.2mb 52f
1:12pm 5 6 mph 1017.2mb 52f
1:06pm 6 7 mph 1017.5mb 52f
1:00pm 5 7 mph 1017.7mb 52f
12:54pm 5 7 mph 1017.7mb 52f
12:48pm 7 9 mph 1017.6mb 52f
12:42pm 3 6 mph 1017.7mb 51f
12:36pm 5 7 mph 1017.8mb 51f
12:30pm 5 7 mph 1017.8mb 51f
12:24pm 6 8 mph 1017.9mb 51f
12:18pm 5 7 mph 1018.1mb 51f
12:12pm 6 8 mph 1018.1mb 51f
12:06pm 6 9 mph 1018mb 51f
12:00pm 8 9 mph 1018mb 51f
11:54am 7 8 mph 1018mb 50f
11:48am 7 8 mph 1017.9mb 50f
11:42am 8 9 mph 1018.1mb 50f
11:36am 8 10 mph 1018.2mb 50f
11:30am 8 10 mph 1018.4mb 50f
11:24am 9 11 mph 1018.3mb 50f
11:18am 9 11 mph 1018.4mb 50f
11:12am 9 10 mph 1018.5mb 50f
11:06am 8 10 mph 1018.7mb 50f
11:00am 7 10 mph 1018.6mb 50f
10:54am 9 11 mph 1018.7mb 50f
10:48am 9 11 mph 1018.5mb 50f
10:42am 10 11 mph 1018.4mb 50f
10:36am 8 9 mph 1018.2mb 50f
10:30am 7 8 mph 1018.3mb 50f
10:24am 7 9 mph 1018.4mb 50f
10:18am 7 10 mph 1018.3mb 50f
10:12am 8 9 mph 1018.3mb 50f
10:06am 8 10 mph 1018.4mb 49f
10:00am 7 10 mph 1018.3mb 50f
9:54am 8 10 mph 1018.2mb 49f
9:48am 8 10 mph 1018.2mb 49f
9:42am 8 11 mph 1018.1mb 49f
9:36am 10 13 mph 1018mb 49f
9:30am 11 14 mph 1017.9mb 49f
9:24am 9 11 mph 1018mb 49f
9:18am 11 13 mph 1017.9mb 49f
9:12am 11 14 mph 1017.7mb 49f
9:06am 13 15 mph 1017.7mb 49f
9:00am 9 15 mph 1017.8mb 49f
8:54am 10 14 mph 1017.7mb 49f
8:48am 10 15 mph 1017.6mb 49f
8:42am 11 14 mph 1017.6mb 49f
8:36am 10 14 mph 1017.6mb 49f
8:30am 11 14 mph 1017.6mb 49f
8:24am 10 14 mph 1017.5mb 49f
8:18am 11 14 mph 1017.7mb 49f
8:12am 11 13 mph 1017.8mb 49f
8:06am 10 14 mph 1017.6mb 49f
8:00am 10 13 mph 1017.6mb 49f
7:54am 10 13 mph 1017.6mb 49f
7:48am 10 13 mph 1017.4mb 49f
7:42am 9 13 mph 1017.5mb 49f
7:36am 9 14 mph 1017.3mb 49f
7:30am 10 13 mph 1017.4mb 49f
7:24am 10 14 mph 1017.4mb 49f
7:18am 9 13 mph 1017.3mb 49f
7:12am 8 13 mph 1017.3mb 49f
7:06am 9 11 mph 1017.3mb 49f
7:00am 9 13 mph 1017.1mb 49f
6:54am 8 11 mph 1017.1mb 49f
6:48am 11 14 mph 1017.1mb 49f
6:42am 10 14 mph 1017.1mb 49f
6:36am 9 14 mph 1016.9mb 49f
6:30am 11 15 mph 1016.6mb 49f
6:24am 13 15 mph 1016.6mb 49f
6:18am 13 15 mph 1016.3mb 49f
6:12am 13 16 mph 1016.4mb 49f
6:06am 11 16 mph 1016.5mb 49f
6:00am 13 14 mph 1016.6mb 49f
5:54am 10 14 mph 1016.6mb 49f
5:48am 13 14 mph 1016.4mb 49f
5:42am 10 14 mph 1016.5mb 49f
5:36am 10 14 mph 1016.4mb 49f
5:30am 9 13 mph 1016.3mb 49f
5:24am 13 15 mph 1016.3mb 49f
5:18am 11 14 mph 1016.2mb 49f
5:12am 13 14 mph 1016.2mb 49f
5:06am 9 11 mph 1016.3mb 49f
5:00am 10 15 mph 1016.2mb 49f
4:54am 11 15 mph 1016.1mb 49f
4:48am 14 16 mph 1016mb 49f
4:42am 13 16 mph 1016.1mb 49f
4:36am 14 16 mph 1015.9mb 49f
4:30am 13 16 mph 1016mb 49f
4:24am 14 16 mph 1015.9mb 49f
4:18am 16 17 mph 1015.7mb 49f
4:12am 13 15 mph 1015.8mb 49f
4:06am 11 14 mph 1015.8mb 49f
4:00am 10 14 mph 1015.8mb 49f
3:54am 10 13 mph 1015.9mb 49f
3:48am 10 11 mph 1015.9mb 49f
3:42am 10 13 mph 1015.8mb 49f
3:36am 10 13 mph 1015.7mb 49f
3:30am 9 11 mph 1015.6mb 49f
3:24am 9 11 mph 1015.6mb 49f
3:18am 8 11 mph 1015.6mb 49f
3:12am 8 10 mph 1015.6mb 49f
3:06am 9 10 mph 1015.7mb 49f
3:00am 8 10 mph 1015.7mb 49f
2:54am 9 11 mph 1015.8mb 49f
2:48am 9 10 mph 1015.7mb 49f
2:42am 9 11 mph 1015.8mb 49f
2:36am 8 11 mph 1015.8mb 49f
2:30am 10 11 mph 1015.8mb 48f
2:24am 9 11 mph 1015.9mb 49f
2:18am 8 11 mph 1015.9mb 49f
2:12am 8 10 mph 1016mb 49f
2:06am 8 11 mph 1016mb 49f
2:00am 9 13 mph 1016mb 49f
1:54am 10 11 mph 1016.1mb 49f
1:48am 9 11 mph 1016mb 49f
1:42am 10 13 mph 1016.2mb 49f
1:36am 8 11 mph 1016.2mb 49f
1:30am 9 14 mph 1016.1mb 49f
1:24am 8 13 mph 1016mb 49f
1:18am 9 13 mph 1016.1mb 49f
1:12am 10 13 mph 1016.1mb 49f
1:06am 9 11 mph 1016.2mb 49f
1:00am 8 11 mph 1016.2mb 49f
12:54am 11 14 mph 1016.1mb 49f
12:48am 11 14 mph 1016.2mb 49f
12:42am 11 15 mph 1016.2mb 49f
12:36am 11 14 mph 1016.2mb 49f
12:30am 11 14 mph 1016.2mb 49f
12:24am 10 15 mph 1016.3mb 49f
12:18am 9 11 mph 1016.3mb 49f
12:12am 10 14 mph 1016.4mb 49f
12:06am 8 11 mph 1016.4mb 49f
12:00am 7 10 mph 1016.5mb 49f
Thu 04/28 11:54pm 6 10 mph 1016.5mb 49f
11:48pm 8 13 mph 1016.4mb 49f
11:42pm 10 14 mph 1016.4mb 49f
11:36pm 9 13 mph 1016.4mb 49f
11:30pm 11 15 mph 1016.4mb 49f
11:24pm 14 16 mph 1016.3mb 49f
11:18pm 11 15 mph 1016.2mb 49f
11:12pm 9 15 mph 1016mb 49f
11:06pm 10 16 mph 1015.8mb 49f
11:00pm  -  mph 1015.7mb 49f
10:54pm  -  mph 1015.7mb 49f
10:48pm  -  mph 1015.8mb -
10:42pm  -  mph 1015.9mb -
10:36pm  -  mph 1016mb -
10:30pm  -  mph 1016.4mb -
10:24pm  -  mph 1016.6mb -
10:18pm 14 18 mph 1016.8mb 49f
10:12pm 13 18 mph 1017.1mb 49f
10:06pm 15 18 mph 1017mb 48f
10:00pm  -  mph 1017.1mb -
9:54pm  -  mph 1017mb -
9:48pm  -  mph 1017.1mb -
9:42pm  -  mph 1017mb -
9:36pm  -  mph 1016.9mb -
9:30pm 17 20 mph 1016.8mb 48f
9:24pm 13 16 mph 1017mb 48f
9:18pm  -  mph 1016.9mb 49f
9:12pm  -  mph 1016.7mb 49f
9:06pm  -  mph 1016.6mb 49f
9:00pm  -  mph 1016.6mb 49f
8:54pm  -  mph 1016.6mb 49f
8:48pm 14 18 mph 1016.6mb -
8:42pm 13 16 mph 1016.5mb -
8:36pm 13 16 mph 1016.4mb -
8:30pm  -  mph 1016.1mb -
8:24pm  -  mph 1016mb -
8:18pm 11 16 mph 1016.3mb 49f
8:12pm 14 17 mph 1016.1mb 49f
8:06pm 14 18 mph 1015.8mb 49f
8:00pm  -  mph 1015.8mb 49f
7:54pm  -  mph 1015.7mb 49f
7:48pm  -  mph 1015.7mb 49f
7:42pm  -  mph 1015.7mb 49f
7:36pm  -  mph 1015.5mb 49f
7:30pm  -  mph 1015.2mb -
7:24pm  -  mph 1015.3mb -
7:18pm  -  mph 1015.4mb -
7:12pm  -  mph 1015.5mb -
7:06pm  -  mph 1015.5mb -
7:00pm  -  mph 1015.5mb 48f
6:54pm  -  mph 1015.6mb 48f
6:48pm  -  mph 1015.6mb 49f
6:42pm  -  mph 1015.5mb 48f
6:36pm  -  mph 1015.1mb 48f
6:30pm  -  mph 1015.2mb 48f
6:24pm  -  mph 1015.5mb 48f
6:18pm 14 17 mph 1015.2mb 48f
6:12pm 14 17 mph 1015.4mb 49f
6:06pm 16 18 mph 1015.5mb 49f
6:00pm  -  mph 1015.1mb 49f
5:54pm  -  mph 1015.2mb 49f
5:48pm  -  mph 1015.7mb -
5:42pm  -  mph 1015.6mb -
5:36pm  -  mph 1015.4mb -
5:30pm 14 16 mph 1015.4mb 49f
5:24pm 14 15 mph 1015.2mb 49f
5:18pm 14 16 mph 1015.2mb 50f
5:12pm 14 17 mph 1015.1mb 50f
5:06pm 10 15 mph 1015mb 50f
5:00pm 11 15 mph 1015mb 50f
4:54pm 13 16 mph 1015mb 50f
4:48pm 14 16 mph 1015.1mb 51f
4:42pm 13 15 mph 1015mb 51f
4:36pm 11 16 mph 1015.1mb 51f
4:30pm 11 13 mph 1015.2mb 52f
4:24pm 8 10 mph 1015.1mb 52f
4:18pm 8 10 mph 1015.1mb 52f
4:12pm 8 11 mph 1015.3mb 52f
4:06pm 10 15 mph 1015.1mb 52f
4:00pm 10 13 mph 1015mb 52f
3:54pm 8 13 mph 1014.9mb 52f
3:48pm 13 15 mph 1014.9mb 52f
3:42pm 13 14 mph 1014.9mb 52f
3:36pm 13 15 mph 1015mb 52f
3:30pm 13 14 mph 1015.1mb 52f
3:24pm 9 13 mph 1015.2mb 52f
3:18pm 10 14 mph 1015.2mb 52f
3:12pm 10 15 mph 1015.3mb 52f
3:06pm 13 14 mph 1015.3mb 52f
3:00pm 11 15 mph 1015.3mb 52f
2:54pm 9 13 mph 1015.3mb 53f
2:48pm 11 15 mph 1015.3mb 53f
2:42pm 10 15 mph 1015.4mb 53f
2:36pm 13 15 mph 1015.2mb 53f
2:30pm 11 16 mph 1015.4mb 53f
2:24pm 14 16 mph 1015.5mb 53f
2:18pm 13 16 mph 1015.6mb 53f
2:12pm 15 16 mph 1015.7mb 52f
2:06pm 15 17 mph 1015.8mb 52f
2:00pm 13 16 mph 1015.8mb 52f
1:54pm 15 17 mph 1015.9mb 52f
1:48pm 14 18 mph 1015.9mb 52f
1:42pm 15 17 mph 1015.8mb 52f
1:36pm 14 17 mph 1015.6mb 52f
1:30pm 13 15 mph 1015.7mb 52f
1:24pm 14 16 mph 1015.9mb 52f
1:18pm 14 15 mph 1015.9mb 52f
1:12pm 14 17 mph 1016mb 52f
1:06pm 15 18 mph 1015.9mb 52f
1:00pm 16 18 mph 1016mb 52f
12:54pm 15 17 mph 1015.9mb 52f
12:48pm 13 17 mph 1016mb 52f
12:42pm 13 15 mph 1016.1mb 52f
12:36pm 10 14 mph 1016.3mb 52f
12:30pm 10 14 mph 1016.4mb 52f
12:24pm 8 13 mph 1016.4mb 52f
12:18pm 11 14 mph 1016.5mb 52f
12:12pm 11 14 mph 1016.5mb 52f
12:06pm 10 15 mph 1016.6mb 52f
12:00pm 11 16 mph 1016.6mb 52f
11:54am 13 15 mph 1016.4mb 52f
11:48am 13 16 mph 1016.3mb 52f
11:42am 11 14 mph 1016.5mb 52f
11:36am 13 14 mph 1016.6mb 52f
11:30am 13 15 mph 1016.6mb 52f
11:24am 10 13 mph 1016.5mb 52f
11:18am 8 9 mph 1016.5mb 51f
11:12am 9 13 mph 1016.4mb 51f
11:06am 7 9 mph 1016.4mb 51f
11:00am 5 8 mph 1016.7mb 51f
10:54am 9 13 mph 1016.4mb 51f
10:48am 10 14 mph 1016.3mb -
10:42am 13 15 mph 1016.5mb -
10:36am 10 13 mph 1016.5mb -
10:30am 7 11 mph 1016.6mb 51f
10:24am 9 11 mph 1016.7mb 51f
10:18am 10 11 mph 1016.7mb 51f
10:12am 9 11 mph 1016.7mb 51f
10:06am 9 13 mph 1016.4mb 51f
10:00am 8 13 mph 1016.3mb 51f
9:54am 9 14 mph 1016.2mb 51f
9:48am 9 11 mph 1016.1mb -
9:42am 10 14 mph 1016mb -
9:36am 13 15 mph 1016mb -
9:30am 14 16 mph 1015.9mb 51f
9:24am 14 16 mph 1015.9mb 51f
9:18am 11 18 mph 1015.9mb 51f
9:12am 16 18 mph 1015.9mb 51f
9:06am 14 16 mph 1015.9mb 51f
9:00am 15 18 mph 1015.8mb 51f
8:54am 15 16 mph 1015.7mb 51f
8:48am 13 15 mph 1015.8mb 51f
8:42am 10 14 mph 1015.9mb 52f
8:36am 9 11 mph 1015.8mb 52f
8:30am 10 13 mph 1015.7mb 52f
8:24am 11 14 mph 1015.6mb 51f
8:18am 11 14 mph 1015.6mb 51f
8:12am 11 14 mph 1015.5mb 51f
8:06am 9 14 mph 1015.5mb 52f
8:00am 14 15 mph 1015.5mb 51f
7:54am 13 15 mph 1015.4mb 51f
7:48am 11 14 mph 1015.5mb 51f
7:42am 10 13 mph 1015.6mb 51f
7:36am 9 13 mph 1015.5mb 51f
7:30am 10 13 mph 1015.3mb 51f
7:24am 10 11 mph 1015.4mb 52f
7:18am 7 10 mph 1015.4mb 52f
7:12am 9 11 mph 1015.2mb 52f
7:06am 6 8 mph 1015.4mb 52f
7:00am 7 8 mph 1015.4mb 52f
6:54am 6 8 mph 1015.3mb 52f
6:48am 6 9 mph 1015.3mb 52f
6:42am 6 10 mph 1015mb 52f
6:36am 9 11 mph 1014.9mb 52f
6:30am 9 13 mph 1014.9mb 52f
6:24am 9 11 mph 1014.8mb 52f
6:18am 8 10 mph 1014.8mb 52f
6:12am 8 10 mph 1014.8mb 52f
6:06am 9 11 mph 1014.8mb 52f
6:00am 8 11 mph 1014.7mb 52f
5:54am 10 13 mph 1014.5mb 52f
5:48am 9 10 mph 1014.4mb 52f
5:42am 8 11 mph 1014.5mb 52f
5:36am 9 10 mph 1014.4mb 52f
5:30am 9 10 mph 1014.4mb 52f
5:24am 8 10 mph 1014.4mb 52f
5:18am 8 10 mph 1014.5mb 52f
5:12am 8 10 mph 1014.5mb 52f
5:06am 9 11 mph 1014.3mb 52f
5:00am 10 11 mph 1014.1mb 53f
4:54am 9 10 mph 1014.2mb 53f
4:48am 8 9 mph 1014.2mb 53f
4:42am 8 9 mph 1014.3mb 53f
4:36am 7 8 mph 1014.4mb 53f
4:30am 7 8 mph 1014.5mb 53f
4:24am 5 7 mph 1014.6mb 53f
4:18am 6 7 mph 1014.7mb 53f
4:12am 6 7 mph 1014.6mb 53f
4:06am 5 6 mph 1014.5mb 52f
4:00am 5 7 mph 1014.4mb 53f
3:54am 6 8 mph 1014.2mb 52f
3:48am 5 6 mph 1014.2mb 52f
3:42am 5 8 mph 1014.2mb 52f
3:36am 8 9 mph 1014.1mb 52f
3:30am 6 9 mph 1014.2mb 52f
3:24am 8 9 mph 1014mb 52f
3:18am 6 8 mph 1013.9mb 52f
3:12am 6 9 mph 1013.9mb 52f
3:06am 7 10 mph 1013.6mb 52f
3:00am 9 10 mph 1013.3mb 52f
2:54am 9 11 mph 1013.2mb 52f
2:48am 10 11 mph 1013.1mb 52f
2:42am 10 11 mph 1013.1mb 52f
2:36am 10 11 mph 1013.2mb 52f
2:30am 9 11 mph 1013.3mb 53f
2:24am 8 9 mph 1013.4mb 53f
2:18am 7 9 mph 1013.5mb 53f
2:12am 5 7 mph 1013.5mb 53f
2:06am 3 6 mph 1013.4mb 54f
2:00am 3 5 mph 1013.4mb 54f
1:54am  -  5 mph 1013.4mb 54f
1:48am 3 5 mph 1013.4mb 54f
1:42am 2 5 mph 1013.4mb 53f
1:36am 6 7 mph 1013.4mb 53f
1:30am 6 7 mph 1013.4mb 53f
1:24am 7 8 mph 1013.6mb 53f
1:18am 6 8 mph 1013.7mb 53f
1:12am 3 5 mph 1013.7mb 53f
1:06am 3
mph
1013.8mb 53f
1:00am  -  5 mph 1013.9mb 53f
12:54am 3 5 mph 1013.9mb 53f
12:48am 2 3 mph 1013.8mb 53f
12:42am  -  6 mph 1013.8mb 53f
12:36am 3 5 mph 1013.9mb 53f
12:30am 2 6 mph 1013.7mb 53f
12:24am 5 7 mph 1013.6mb 53f
12:18am 6 8 mph 1013.7mb 53f
12:12am 6 7 mph 1013.8mb 53f
12:06am 3 6 mph 1013.9mb 53f
12:00am 5 7 mph 1014mb 53f
Wed 04/27 11:54pm 7 8 mph 1014.1mb 53f
11:48pm  -  mph 1014.2mb 53f
11:42pm  -  mph 1014.2mb 53f
11:36pm  -  mph 1014.2mb 53f
11:30pm 8 10 mph 1014.3mb 53f
11:24pm 9
mph
1014.3mb 53f
11:18pm 7 11 mph 1014.3mb 53f
11:12pm 8 9 mph 1014.3mb 53f
11:06pm 9 11 mph 1014.5mb 53f
11:00pm  -  mph 1014.3mb 53f
10:54pm  -  mph 1014.4mb 52f
10:48pm  -  mph 1014.2mb 53f
10:42pm  -  mph 1014.3mb 52f
10:36pm  -  mph 1014.2mb 52f
10:30pm  -  mph 1014.2mb -
10:24pm  -  mph 1014.2mb -
10:18pm 8 10 mph 1014.2mb 52f
10:12pm 8 9 mph 1014.3mb 52f
10:06pm 7 10 mph 1014.3mb 52f
10:00pm  -  mph 1014.4mb -
9:54pm  -  mph 1014.2mb -
9:48pm  -  mph 1014.2mb -
9:42pm  -  mph 1014.4mb -
9:36pm  -  mph 1014.2mb -
9:30pm  -  mph 1014.1mb -
9:24pm  -  mph 1014.3mb -
9:18pm  -  mph 1014.4mb -
9:12pm  -  mph 1014.3mb -
9:06pm  -  mph 1014.1mb -
9:00pm  -  mph 1014.2mb 52f
8:54pm  -  mph 1014mb 52f
8:48pm  -  mph 1013.9mb -
8:42pm  -  mph 1013.7mb -
8:36pm  -  mph 1013.5mb -
8:30pm  -  mph 1013.5mb -
8:24pm  -  mph 1013.4mb -
8:18pm 9 11 mph - -
8:12pm 10 11 mph - -
8:06pm 8 10 mph - -
8:00pm  -  mph 1013.5mb -
7:54pm  -  mph 1013.4mb -
7:48pm  -  mph 1013.4mb -
7:42pm  -  mph 1013.4mb -
7:36pm  -  mph 1013.3mb -
7:30pm  -  mph 1013.4mb -
7:24pm  -  mph 1013.4mb -
7:18pm  -  mph 1013.4mb 53f
7:12pm  -  mph 1013.3mb 53f
7:06pm  -  mph 1013.3mb 53f
7:00pm  -  mph 1013.3mb 53f
6:54pm  -  mph 1013.1mb 53f
6:48pm  -  mph 1013mb 53f
6:42pm  -  mph 1012.8mb 53f
6:36pm  -  mph 1012.9mb 53f
6:30pm  -  mph 1012.9mb -
6:24pm  -  mph 1012.9mb -
6:18pm 7 10 mph 1012.9mb -
6:12pm 7 9 mph 1012.9mb -
6:06pm 8 9 mph 1013.1mb -
6:00pm  -  mph 1013.2mb -
5:54pm  -  mph 1013.3mb -
5:48pm  -  mph 1013.3mb -
5:42pm  -  mph 1013.2mb -
5:36pm  -  mph 1013.1mb -
5:30pm 7 10 mph 1013.1mb 54f
5:24pm 9 10 mph 1013.1mb 54f
5:18pm 8 9 mph 1013mb 54f
5:12pm 7 9 mph 1012.9mb 54f
5:06pm 9 10 mph 1012.9mb 54f
5:00pm 7 9 mph 1012.8mb 54f
4:54pm 7 8 mph 1012.8mb 54f
4:48pm 6 9 mph 1012.8mb 54f
4:42pm 5 8 mph 1012.9mb 54f
4:36pm 5 7 mph 1012.9mb 54f
4:30pm 5 6 mph 1012.8mb 53f
4:24pm 3 6 mph 1012.8mb 53f
4:18pm 3 6 mph 1012.8mb 53f
4:12pm 2 5 mph 1012.8mb 54f
4:06pm 1 5 mph 1012.8mb 54f
4:00pm 2 5 mph 1012.8mb 53f
3:54pm 3 5 mph 1012.9mb 53f
3:48pm 3 6 mph 1012.9mb 53f
3:42pm 5 6 mph 1013mb 53f
3:36pm 3 6 mph 1013mb 53f
3:30pm 3 5 mph 1013.1mb 53f
3:24pm 3 5 mph 1013.1mb 53f
3:18pm 3 6 mph 1013.2mb 53f
3:12pm 1 3 mph 1013.2mb 53f
3:06pm 3 5 mph 1013.1mb 53f
3:00pm 2 5 mph 1013.2mb 53f
2:54pm 3 6 mph 1013.1mb 52f
2:48pm 5 6 mph 1013.1mb 52f
2:42pm 2 6 mph 1013.2mb 53f
2:36pm 5 6 mph 1013.2mb 52f
2:30pm 1 2 mph 1013.2mb 52f
2:24pm 2 3 mph 1013.2mb 52f
2:18pm 3 5 mph 1013.3mb 52f
2:12pm 3 5 mph 1013.1mb 52f
2:06pm 5 6 mph 1013.1mb 52f
2:00pm 6 7 mph 1013.2mb 52f
1:54pm 3 6 mph 1013.1mb 52f
1:48pm 3 6 mph 1013.1mb 52f
1:42pm 5 6 mph 1012.9mb 52f
1:36pm 5 6 mph 1013mb 51f
1:30pm 5 6 mph 1013mb 51f
1:24pm 3 6 mph 1013.1mb 51f
1:18pm 6 7 mph 1013mb 51f
1:12pm 5 10 mph 1013.1mb 52f
1:06pm 8 10 mph 1013.2mb 51f
1:00pm 9 11 mph 1013.1mb 51f
12:54pm 7 10 mph 1013.1mb 51f
12:48pm 8 9 mph 1013.1mb 51f
12:42pm 6 9 mph 1013.2mb 51f
12:36pm 7 8 mph 1013.5mb 51f
12:30pm 7 9 mph 1013.5mb 51f
12:24pm 8 9 mph 1013.5mb 51f
12:18pm 7 9 mph 1013.5mb 51f
12:12pm 6 9 mph 1013.4mb 51f
12:06pm 6 9 mph 1013.4mb 51f
12:00pm 8 9 mph 1013.4mb 51f
11:54am 7 11 mph 1013.3mb 51f
11:48am 8 9 mph 1013.2mb 51f
11:42am 8 9 mph 1013.2mb 51f
11:36am 7 10 mph 1013.1mb 51f
11:30am 7 10 mph 1013.3mb 51f
11:24am 7 9 mph 1013.4mb 51f
11:18am 9 13 mph 1013.3mb 51f
11:12am 9 14 mph 1013.1mb 51f
11:06am 13 15 mph 1013.1mb 51f
11:00am 9 15 mph 1013.4mb 51f
10:54am 14 17 mph 1013.4mb 51f
10:48am 10 13 mph 1013.4mb -
10:42am 11 16 mph 1013.3mb -
10:36am 15 18 mph 1013.1mb -
10:30am 10 15 mph 1013.1mb 51f
10:24am 14 16 mph 1013.3mb 51f
10:18am 11 15 mph 1013.6mb 51f
10:12am 11 16 mph 1013.8mb 51f
10:06am 14 17 mph 1013.8mb 51f
10:00am 11 16 mph 1013.8mb 51f
9:54am 11 16 mph 1013.9mb 51f
9:48am 13 17 mph 1013.9mb 51f
9:42am 16 18 mph 1013.8mb 51f
9:36am 15 16 mph 1013.8mb 51f
9:30am 14 16 mph 1013.6mb 51f
9:24am 13 16 mph 1013.5mb 51f
9:18am 15 18 mph 1013.6mb 51f
9:12am 15 20 mph 1013.6mb 51f
9:06am 15 18 mph 1013.4mb 51f
9:00am 16 20 mph 1013.4mb 51f
8:54am 15 20 mph 1013.3mb 51f
8:48am 13 16 mph 1013.4mb 52f
8:42am 13 16 mph 1013.4mb 52f
8:36am 14 17 mph 1013.4mb 52f
8:30am 13 15 mph 1013.5mb 52f
8:24am 9 13 mph 1013.3mb 52f
8:18am 10 14 mph 1012.7mb 51f
8:12am 11 16 mph 1012.4mb 52f
8:06am 11 17 mph 1012.3mb 52f
8:00am 13 16 mph 1012.4mb 52f
7:54am 11 16 mph 1012.6mb 52f
7:48am 14 18 mph 1012.4mb 51f
7:42am 13 14 mph 1012.5mb 51f
7:36am 10 17 mph 1012.2mb 51f
7:30am 15 18 mph 1012.3mb 51f
7:24am 15 18 mph 1012.3mb 51f
7:18am 17 20 mph 1012.3mb 52f
7:12am 16 20 mph 1012.4mb 52f
7:06am 15 18 mph 1012.4mb 52f
7:00am 15 18 mph 1012.3mb 52f
6:54am 16 17 mph 1012.1mb 52f
6:48am 15 21 mph 1011.9mb 52f
6:42am 15 21 mph 1011.5mb 53f
6:36am 17 21 mph 1011.3mb 53f
6:30am 18 21 mph 1011.2mb 53f
6:24am 16 17 mph 1011.2mb 53f
6:18am 15 17 mph 1011.1mb 53f
6:12am 14 17 mph 1011mb 53f
6:06am 11 14 mph 1010.8mb 53f
6:00am 11 15 mph 1010.6mb 53f
5:54am 11 15 mph 1010.6mb 54f
5:48am 10 16 mph 1010.3mb 54f
5:42am 13 15 mph 1010.1mb 54f
5:36am 14 16 mph 1010mb 54f
5:30am 13 16 mph 1009.8mb 55f
5:24am 11 17 mph 1009.9mb 55f
5:18am 14 18 mph 1009.8mb 55f
5:12am 15 17 mph 1009.5mb 56f
5:06am 14 16 mph 1009.4mb 56f
5:00am 13 16 mph 1009.5mb 56f
4:54am 16 21 mph 1009.3mb 57f
4:48am 17 18 mph 1009.1mb 57f
4:42am 16 17 mph 1009mb 58f
4:36am 17 18 mph 1008.9mb 59f
4:30am 15 20 mph 1008.6mb 59f
4:24am 16 17 mph 1008.8mb 60f
4:18am 11 14 mph 1008.8mb 61f
4:12am 9 13 mph 1008.8mb 62f
4:06am 9 17 mph 1008.6mb 63f
4:00am 16 18 mph 1008.5mb 64f
3:54am 10 14 mph 1008.5mb 64f
3:48am 11 13 mph 1008.2mb 65f
3:42am 9 10 mph 1008.3mb 66f
3:36am 8 10 mph 1008.2mb 65f
3:30am 5 8 mph 1007.9mb 67f
3:24am 5 6 mph 1007.8mb 66f
3:18am 3 5 mph 1007.6mb 66f
3:12am 2 3 mph 1007.5mb 65f
3:06am 1 2 mph 1007.4mb 66f
3:00am 1 6 mph 1007.4mb 66f
2:54am 3 8 mph 1007.4mb 67f
2:48am 6 10 mph 1007.4mb 67f
2:42am 9 14 mph 1007.2mb 67f
2:36am 10 14 mph 1007.2mb 67f
2:30am 9 13 mph 1007mb 67f
2:24am 11 17 mph 1007.1mb 67f
2:18am 14 18 mph 1007.2mb 68f
2:12am 14 17 mph 1007.3mb 67f
2:06am 14 17 mph 1007.4mb 68f
2:00am 16 20 mph 1007.5mb 68f
1:54am 17 20 mph 1007.6mb 68f
1:48am 16 18 mph 1007.6mb -
1:42am 16 18 mph 1007.7mb -
1:36am 16 21 mph 1007.8mb -
1:30am 14 20 mph 1007.9mb 69f
1:24am 15 20 mph 1008mb 69f
1:18am 15 21 mph 1008mb 69f
1:12am 16 21 mph 1008.1mb 69f
1:06am 16 20 mph 1008mb 70f
1:00am 11 17 mph 1008.1mb 71f
12:54am 14 18 mph 1008.2mb 71f
12:48am 14 21 mph 1008.1mb 71f
12:42am 16 22 mph 1008.1mb 71f
12:36am 17 22 mph 1008mb 72f
12:30am 14 20 mph 1008mb 72f
12:24am 8 11 mph 1008.1mb 70f
12:18am 8 15 mph 1008.2mb 69f
12:12am 13 16 mph 1008.3mb 70f
12:06am 13 16 mph 1008.2mb 72f
12:00am 14 16 mph 1008mb 71f
Tue 04/26 11:54pm 13 14 mph 1007.8mb 71f
11:48pm 10 13 mph 1007.8mb 71f
11:42pm 9 14 mph 1007.8mb 72f
11:36pm 13 14 mph 1007.7mb 72f
11:30pm 11 14 mph 1007.6mb 71f
11:24pm 10 13 mph 1007.6mb 71f
11:18pm 6 8 mph 1007.6mb 70f
11:12pm 8 10 mph 1007.6mb 71f
11:06pm 7 11 mph 1007.6mb 72f
11:00pm 11 14 mph 1007.6mb 72f
10:54pm 10 15 mph 1007.6mb 73f
10:48pm 13 15 mph 1007.6mb 73f
10:42pm 14 16 mph 1007.6mb 73f
10:36pm 14 16 mph 1007.7mb 72f
10:30pm 11 14 mph 1007.7mb 73f
10:24pm 11 15 mph 1007.7mb 72f
10:18pm 14 20 mph 1007.8mb 72f
10:12pm 10 20 mph 1007.8mb 72f
10:06pm 7 10 mph 1007.6mb 72f
10:00pm 6 7 mph 1007.4mb -
9:54pm 5 10 mph 1007.3mb -
9:48pm  -  mph 1007.3mb 73f
9:42pm  -  mph 1007.6mb 74f
9:36pm  -  mph 1007mb 79f
9:30pm 6 7 mph 1006.8mb 79f
9:24pm 6 8 mph 1006.7mb 80f
9:18pm  -  mph 1006.7mb 80f
9:12pm  -  mph 1006.6mb 80f
9:06pm  -  mph 1006.5mb 80f
9:00pm 6 8 mph 1006.4mb 80f
8:54pm 7 9 mph 1006.3mb 80f
8:48pm  -  mph 1006.2mb 80f
8:42pm  -  mph 1006.2mb 80f
8:36pm  -  mph 1006.2mb 80f
8:30pm 7 11 mph 1006.2mb 80f
8:24pm 8 10 mph 1006.1mb 80f
8:18pm  -  mph 1006.1mb 80f
8:12pm  -  mph 1006.2mb 80f
8:06pm  -  mph 1006.1mb 80f
8:00pm 7 9 mph 1006.1mb 81f
7:54pm 7 9 mph 1006.1mb 81f
7:48pm  -  mph - 81f
7:42pm  -  mph - 81f
7:36pm  -  mph - 82f
7:30pm 8 14 mph 1006mb 81f
7:24pm 9 11 mph 1006mb 82f
7:18pm  -  mph 1006mb 82f
7:12pm  -  mph 1005.9mb 82f
7:06pm  -  mph 1005.9mb 82f
7:00pm 10 16 mph 1005.9mb 83f
6:54pm 10 15 mph 1005.8mb 82f
6:48pm 8 14 mph 1005.7mb 83f
6:42pm 8 14 mph 1005.6mb 82f
6:36pm 11 17 mph 1005.7mb 83f
6:30pm 10 16 mph 1005.7mb 83f
6:24pm 9 16 mph 1005.7mb 83f
6:18pm 9 13 mph 1005.8mb 83f
6:12pm 11 16 mph 1005.8mb 83f
6:06pm 11 20 mph 1005.7mb 83f
6:00pm 14 20 mph 1005.7mb 83f
5:54pm 14 23 mph 1005.7mb 83f
5:48pm  -  mph 1005.7mb -
5:42pm  -  mph 1005.7mb -
5:36pm  -  mph 1005.7mb -
5:30pm 18 22 mph 1005.6mb 83f
5:24pm 17 28 mph 1005.6mb 83f
5:18pm 18 28 mph 1005.5mb 84f
5:12pm 16 30 mph 1005.5mb 84f
5:06pm 10 26 mph 1005.6mb 83f
5:00pm 15 23 mph 1005.5mb 84f
4:54pm 14 23 mph 1005.5mb 83f
4:48pm 14 34 mph 1005.6mb 84f
4:42pm 15 24 mph 1005.6mb 84f
4:36pm 18 23 mph 1005.6mb 84f
4:30pm 21 30 mph 1005.6mb 83f
4:24pm 22 30 mph 1005.6mb 84f
4:18pm 16 24 mph 1005.6mb 83f
4:12pm 14 20 mph 1005.7mb 83f
4:06pm 16 26 mph 1005.7mb 83f
4:00pm 21 28 mph 1005.8mb 83f
3:54pm 13 18 mph 1005.8mb 83f
3:48pm 18 23 mph 1005.9mb 83f
2:54pm 16 28 mph 1006.2mb 82f
2:48pm 20 28 mph 1006.2mb 82f
1:54pm 20 25 mph 1006.4mb 81f
1:48pm 21 32 mph 1006.5mb 81f
12:54pm 17 23 mph 1007.1mb 79f
12:48pm 20 23 mph 1007.3mb 79f
12:30pm 14 16 mph 1008mb 79f
12:24pm 11 17 mph 1008mb 79f
12:18pm 14 18 mph 1008mb 78f
12:12pm 9 14 mph 1008.1mb 78f
12:06pm 14 17 mph 1008.2mb 78f
12:00pm 11 15 mph 1008.1mb 77f
11:54am 8 11 mph 1008.2mb 77f
11:48am 7 13 mph 1008.3mb 77f
11:42am 11 20 mph 1008.4mb 77f
11:36am 14 23 mph 1008.4mb 77f
11:30am 13 20 mph 1008.5mb 76f
11:24am 15 20 mph 1008.5mb 76f
11:18am 14 21 mph 1008.6mb 76f
11:12am 14 21 mph 1008.6mb 75f
11:06am 16 20 mph 1008.6mb 75f
11:00am 14 24 mph 1008.6mb 75f
10:54am 21 26 mph 1008.7mb 74f
10:48am 17 25 mph 1008.7mb 74f
10:42am 16 25 mph 1008.7mb 73f
10:36am 17 22 mph 1008.7mb 73f
10:30am 18 23 mph 1008.7mb 73f
10:24am 13 21 mph 1008.8mb 73f
10:18am 18 26 mph 1008.9mb 73f
10:12am 22 29 mph 1008.8mb 72f
10:06am 18 26 mph 1008.9mb 72f
10:00am 20 24 mph 1008.9mb 72f
9:54am 18 24 mph 1009mb 72f
9:48am 17 25 mph 1009mb 71f
9:42am 21 28 mph 1009mb 71f
9:36am 18 24 mph 1009mb 71f
9:30am 17 29 mph 1009mb 71f
9:24am 17 26 mph 1008.9mb 71f
9:18am 22 30 mph 1008.9mb 71f
9:12am 16 28 mph 1008.9mb 70f
9:06am 23 30 mph 1008.9mb 70f
9:00am 21 31 mph 1008.8mb 69f
8:54am 21 28 mph 1008.8mb 69f
8:48am 20 30 mph 1008.8mb 69f
8:42am 22 32 mph 1008.8mb 69f
8:36am 26 33 mph 1008.8mb 69f
8:30am 22 30 mph 1008.9mb 69f
8:24am 24 31 mph 1008.9mb 68f
8:18am 23 29 mph 1008.8mb 68f
8:12am 23 31 mph 1008.8mb 68f
8:06am 21 29 mph 1008.9mb 68f
8:00am 18 29 mph 1008.9mb 68f
7:54am 21 28 mph 1008.9mb 67f
7:48am 22 29 mph 1008.9mb 67f
7:42am 21 30 mph 1008.9mb 67f